PWSweather.com
Personal Weather Stations
Station Observations
PAIARIPE
CaprarolaIT

CaprarolaIT

Lat: 42.32806, Lon: 12.236940000000004

Elevation: 1706

Station Type: Oregon Scientific WMR200

Latest ConditionsUpdated 9:30:25 AM GMT+01:01 Friday, Aug 18, 2017
Currently Today's Max Today's Min Today's Average
Temperature 86.0°F30.0°C 86.0°F30.0°C 74.1°F23.4°C 77.2°F25.1°C
Dew Point 61.5°F16.4°C 66.4°F19.1°C 54.0°F12.2°C 59.1°F15.1°C
Winds 3.6 mph E5.8 kmh E 5.0 mph E8.0 kmh E - 1.9 mph 3.1 kmh
Wind Gusts 4.3 mph6.9 kmh 7.6 mph12.2 kmh - -
Humidity 44% 64% 44% 54%
Pressure 30.09 in1019.0 mb 30.12 in1020.0 mb 30.03 in1016.9 mb -
Hour Temp Dew Point Humidity Winds Wind Gusts Pressure Precip Precip Rate Daily Precip Total
09:30 AM 86.0°F30.0°C 61.5°F16.4°C 44% 3.6 mph E5.8 kmh E 4.3 mph6.9 kmh 30.09 in1019.0 mb - 0.00 in0.0 mm 0.00 in0.0 mm
09:20 AM 84.9°F29.4°C 61.8°F16.6°C 46% 3.7 mph E6.0 kmh E 4.5 mph7.2 kmh 30.09 in1019.0 mb - 0.00 in0.0 mm 0.00 in0.0 mm
09:10 AM 84.9°F29.4°C 61.8°F16.6°C 46% 5.0 mph E8.0 kmh E 5.6 mph9.0 kmh 30.09 in1019.0 mb - 0.00 in0.0 mm 0.00 in0.0 mm
09:00 AM 84.3°F29.1°C 61.9°F16.6°C 47% 2.4 mph E3.9 kmh E 3.6 mph5.8 kmh 30.10 in1019.3 mb - 0.00 in0.0 mm 0.00 in0.0 mm
08:50 AM 84.4°F29.1°C 62.5°F16.9°C 48% 3.6 mph E5.8 kmh E 5.6 mph9.0 kmh 30.12 in1020.0 mb - 0.00 in0.0 mm 0.00 in0.0 mm
08:40 AM 84.6°F29.2°C 64.5°F18.1°C 51% 3.0 mph E4.8 kmh E 4.9 mph7.9 kmh 30.09 in1019.0 mb - 0.00 in0.0 mm 0.00 in0.0 mm
08:30 AM 83.8°F28.8°C 63.2°F17.3°C 50% 4.9 mph ENE7.9 kmh ENE 7.6 mph12.2 kmh 30.09 in1019.0 mb - 0.00 in0.0 mm 0.00 in0.0 mm
08:20 AM 83.8°F28.8°C 63.2°F17.3°C 50% 3.9 mph NE6.3 kmh NE 5.9 mph9.5 kmh 30.09 in1019.0 mb - 0.00 in0.0 mm 0.00 in0.0 mm
08:00 AM 83.7°F28.7°C 61.9°F16.6°C 48% 2.8 mph ENE4.5 kmh ENE 3.6 mph5.8 kmh 30.09 in1019.0 mb - 0.00 in0.0 mm 0.00 in0.0 mm
07:50 AM 83.5°F28.6°C 61.8°F16.6°C 48% 1.9 mph ENE3.1 kmh ENE 3.3 mph5.3 kmh 30.09 in1019.0 mb - 0.00 in0.0 mm 0.00 in0.0 mm
07:40 AM 83.5°F28.6°C 63.4°F17.4°C 51% 2.2 mph E3.5 kmh E 2.9 mph4.7 kmh 30.09 in1019.0 mb - 0.00 in0.0 mm 0.00 in0.0 mm
07:30 AM 82.0°F27.8°C 65.3°F18.5°C 57% 1.6 mph E2.6 kmh E 2.6 mph4.2 kmh 30.09 in1019.0 mb - 0.00 in0.0 mm 0.00 in0.0 mm
07:20 AM 81.3°F27.4°C 65.6°F18.7°C 59% Calm Calm 1.2 mph1.9 kmh 30.09 in1019.0 mb - 0.00 in0.0 mm 0.00 in0.0 mm
07:10 AM 80.2°F26.8°C 66.4°F19.1°C 63% Calm Calm -- 30.09 in1019.0 mb - 0.00 in0.0 mm 0.00 in0.0 mm
07:00 AM 78.6°F25.9°C 65.4°F18.6°C 64% Calm Calm -- 30.09 in1019.0 mb - 0.00 in0.0 mm 0.00 in0.0 mm
06:50 AM 77.3°F25.2°C 64.2°F17.9°C 64% Calm Calm -- 30.09 in1019.0 mb - 0.00 in0.0 mm 0.00 in0.0 mm
06:40 AM 76.0°F24.4°C 62.9°F17.2°C 64% Calm Calm -- 30.09 in1019.0 mb - 0.00 in0.0 mm 0.00 in0.0 mm
06:30 AM 75.2°F24.0°C 61.7°F16.5°C 63% Calm Calm -- 30.08 in1018.6 mb - 0.00 in0.0 mm 0.00 in0.0 mm
06:20 AM 74.8°F23.8°C 61.4°F16.3°C 63% Calm Calm -- 30.06 in1017.9 mb - 0.00 in0.0 mm 0.00 in0.0 mm
06:10 AM 74.6°F23.7°C 60.3°F15.7°C 61% Calm Calm -- 30.06 in1017.9 mb - 0.00 in0.0 mm 0.00 in0.0 mm
06:00 AM 75.2°F24.0°C 59.9°F15.5°C 59% 1.4 mph WNW2.3 kmh WNW 2.0 mph3.2 kmh 30.06 in1017.9 mb - 0.00 in0.0 mm 0.00 in0.0 mm
05:50 AM 75.0°F23.9°C 59.7°F15.4°C 59% 2.2 mph NW3.5 kmh NW 2.6 mph4.2 kmh 30.06 in1017.9 mb - 0.00 in0.0 mm 0.00 in0.0 mm
05:40 AM 74.6°F23.7°C 59.3°F15.2°C 59% 1.1 mph NW1.8 kmh NW 2.2 mph3.5 kmh 30.09 in1019.0 mb - 0.00 in0.0 mm 0.00 in0.0 mm
05:30 AM 74.3°F23.5°C 59.0°F15.0°C 59% 1.7 mph W2.7 kmh W 3.3 mph5.3 kmh 30.08 in1018.6 mb - 0.00 in0.0 mm 0.00 in0.0 mm
05:20 AM 74.1°F23.4°C 58.4°F14.7°C 58% 1.6 mph W2.6 kmh W 2.6 mph4.2 kmh 30.06 in1017.9 mb - 0.00 in0.0 mm 0.00 in0.0 mm
05:10 AM 74.3°F23.5°C 58.1°F14.5°C 57% 1.9 mph WSW3.1 kmh WSW 2.9 mph4.7 kmh 30.06 in1017.9 mb - 0.00 in0.0 mm 0.00 in0.0 mm
05:00 AM 74.5°F23.6°C 57.8°F14.3°C 56% 2.3 mph W3.7 kmh W 3.3 mph5.3 kmh 30.06 in1017.9 mb - 0.00 in0.0 mm 0.00 in0.0 mm
04:50 AM 74.5°F23.6°C 57.8°F14.3°C 56% 2.0 mph NW3.2 kmh NW 2.9 mph4.7 kmh 30.06 in1017.9 mb - 0.00 in0.0 mm 0.00 in0.0 mm
04:40 AM 74.7°F23.7°C 57.4°F14.1°C 55% 1.6 mph NW2.6 kmh NW 2.4 mph3.9 kmh 30.06 in1017.9 mb - 0.00 in0.0 mm 0.00 in0.0 mm
04:30 AM 74.5°F23.6°C 57.3°F14.1°C 55% 1.8 mph NW2.9 kmh NW 2.6 mph4.2 kmh 30.05 in1017.6 mb - 0.00 in0.0 mm 0.00 in0.0 mm
04:20 AM 74.5°F23.6°C 56.7°F13.7°C 54% 1.5 mph NW2.4 kmh NW 2.9 mph4.7 kmh 30.03 in1016.9 mb - 0.00 in0.0 mm 0.00 in0.0 mm
04:10 AM 74.5°F23.6°C 56.2°F13.4°C 53% 2.0 mph NW3.2 kmh NW 2.6 mph4.2 kmh 30.06 in1017.9 mb - 0.00 in0.0 mm 0.00 in0.0 mm
04:00 AM 74.5°F23.6°C 55.7°F13.2°C 52% 1.4 mph WNW2.3 kmh WNW 1.6 mph2.6 kmh 30.06 in1017.9 mb - 0.00 in0.0 mm 0.00 in0.0 mm
03:50 AM 74.7°F23.7°C 55.3°F12.9°C 51% 2.1 mph NW3.4 kmh NW 2.6 mph4.2 kmh 30.06 in1017.9 mb - 0.00 in0.0 mm 0.00 in0.0 mm
03:40 AM 74.9°F23.8°C 55.0°F12.8°C 50% 2.5 mph NW4.0 kmh NW 3.3 mph5.3 kmh 30.06 in1017.9 mb - 0.00 in0.0 mm 0.00 in0.0 mm
03:30 AM 75.4°F24.1°C 54.9°F12.7°C 49% 1.8 mph NW2.9 kmh NW 2.4 mph3.9 kmh 30.06 in1017.9 mb - 0.00 in0.0 mm 0.00 in0.0 mm
03:20 AM 75.4°F24.1°C 54.3°F12.4°C 48% 2.3 mph NW3.7 kmh NW 3.3 mph5.3 kmh 30.06 in1017.9 mb - 0.00 in0.0 mm 0.00 in0.0 mm
03:10 AM 75.4°F24.1°C 54.3°F12.4°C 48% 2.2 mph WNW3.5 kmh WNW 2.9 mph4.7 kmh 30.03 in1016.9 mb - 0.00 in0.0 mm 0.00 in0.0 mm
03:00 AM 75.4°F24.1°C 54.3°F12.4°C 48% Calm Calm 2.0 mph3.2 kmh 30.04 in1017.3 mb - 0.00 in0.0 mm 0.00 in0.0 mm
02:50 AM 75.0°F23.9°C 54.0°F12.2°C 48% 2.0 mph NW3.2 kmh NW 2.4 mph3.9 kmh 30.06 in1017.9 mb - 0.00 in0.0 mm 0.00 in0.0 mm
02:40 AM 75.4°F24.1°C 54.3°F12.4°C 48% 1.2 mph NW1.9 kmh NW 2.0 mph3.2 kmh 30.06 in1017.9 mb - 0.00 in0.0 mm 0.00 in0.0 mm
02:30 AM 75.3°F24.1°C 54.8°F12.7°C 49% 2.6 mph NW4.2 kmh NW 3.3 mph5.3 kmh 30.06 in1017.9 mb - 0.00 in0.0 mm 0.00 in0.0 mm
02:20 AM 75.2°F24.0°C 55.3°F12.9°C 50% 2.5 mph NW4.0 kmh NW 3.3 mph5.3 kmh 30.06 in1017.9 mb - 0.00 in0.0 mm 0.00 in0.0 mm
02:10 AM 75.4°F24.1°C 56.5°F13.6°C 52% 2.4 mph NW3.9 kmh NW 3.1 mph5.0 kmh 30.06 in1017.9 mb - 0.00 in0.0 mm 0.00 in0.0 mm
02:00 AM 75.2°F24.0°C 57.4°F14.1°C 54% 2.3 mph WNW3.7 kmh WNW 2.9 mph4.7 kmh 30.06 in1017.9 mb - 0.00 in0.0 mm 0.00 in0.0 mm
01:50 AM 75.0°F23.9°C 58.3°F14.6°C 56% 2.3 mph NW3.7 kmh NW 2.4 mph3.9 kmh 30.06 in1017.9 mb - 0.00 in0.0 mm 0.00 in0.0 mm
01:40 AM 75.2°F24.0°C 57.9°F14.4°C 55% 1.8 mph WNW2.9 kmh WNW 2.9 mph4.7 kmh 30.09 in1019.0 mb - 0.00 in0.0 mm 0.00 in0.0 mm
01:30 AM 75.5°F24.2°C 58.2°F14.6°C 55% 1.9 mph NW3.1 kmh NW 2.6 mph4.2 kmh 30.09 in1019.0 mb - 0.00 in0.0 mm 0.00 in0.0 mm
01:20 AM 75.6°F24.2°C 58.3°F14.6°C 55% 1.5 mph WNW2.4 kmh WNW 2.0 mph3.2 kmh 30.09 in1019.0 mb - 0.00 in0.0 mm 0.00 in0.0 mm
01:10 AM 75.2°F24.0°C 57.9°F14.4°C 55% 1.9 mph W3.1 kmh W 1.6 mph2.6 kmh 30.09 in1019.0 mb - 0.00 in0.0 mm 0.00 in0.0 mm
01:00 AM 75.2°F24.0°C 57.9°F14.4°C 55% 2.2 mph WSW3.5 kmh WSW 3.8 mph6.1 kmh 30.09 in1019.0 mb - 0.00 in0.0 mm 0.00 in0.0 mm
12:50 AM 75.4°F24.1°C 58.1°F14.5°C 55% 1.5 mph WNW2.4 kmh WNW 2.0 mph3.2 kmh 30.09 in1019.0 mb - 0.00 in0.0 mm 0.00 in0.0 mm
12:40 AM 75.2°F24.0°C 57.9°F14.4°C 55% 2.2 mph NW3.5 kmh NW 2.2 mph3.5 kmh 30.09 in1019.0 mb - 0.00 in0.0 mm 0.00 in0.0 mm
12:30 AM 75.2°F24.0°C 57.9°F14.4°C 55% 2.2 mph NW3.5 kmh NW 2.9 mph4.7 kmh 30.09 in1019.0 mb - 0.00 in0.0 mm 0.00 in0.0 mm
12:20 AM 75.4°F24.1°C 58.1°F14.5°C 55% 2.2 mph NW3.5 kmh NW 3.1 mph5.0 kmh 30.09 in1019.0 mb - 0.00 in0.0 mm 0.00 in0.0 mm
12:10 AM 75.2°F24.0°C 57.9°F14.4°C 55% 2.1 mph NW3.4 kmh NW 2.4 mph3.9 kmh 30.09 in1019.0 mb - 0.00 in0.0 mm 0.00 in0.0 mm
12:00 AM 74.3°F23.5°C 57.6°F14.2°C 56% 1.8 mph NW2.9 kmh NW 3.1 mph5.0 kmh 30.08 in1018.6 mb - 0.00 in0.0 mm 0.00 in0.0 mm